Time;durP1;ratioP1;P1;durP2;ratioP2;P2;SDS_P1;SDS_P2;PMS_P1;PMS_P2;Temp;Humidity;BMP_temperature;BMP_pressure;BME280_temperature;BME280_humidity;BME280_pressure;Samples;Min_cycle;Max_cycle;Signal;HPM_P1;HPM_P2
2023/06/17 00:00:55;;;;;;;18.60;14.80;;;;;;;-128.00;-1.00;-1.00;103776;1256;1013072;-82
2023/06/17 00:03:22;;;;;;;17.20;13.70;;;;;;;-128.00;-1.00;-1.00;103542;1256;1002894;-82
2023/06/17 00:05:49;;;;;;;17.20;13.40;;;;;;;-128.00;-1.00;-1.00;103502;1254;1002471;-82
2023/06/17 00:08:16;;;;;;;20.60;14.60;;;;;;;-128.00;-1.00;-1.00;103398;1260;1002455;-82
2023/06/17 00:10:44;;;;;;;20.70;16.00;;;;;;;-128.00;-1.00;-1.00;103659;1255;1003092;-82
2023/06/17 00:13:19;;;;;;;22.00;15.20;;;;;;;-128.00;-1.00;-1.00;103741;1257;1002440;-81
2023/06/17 00:15:48;;;;;;;16.40;14.20;;;;;;;-128.00;-1.00;-1.00;103628;1256;1012333;-82
2023/06/17 00:18:19;;;;;;;;;;;;;;;-128.00;-1.00;-1.00;103654;1253;1009590;-82
2023/06/17 00:20:47;;;;;;;29.30;15.20;;;;;;;-128.00;-1.00;-1.00;103657;1251;1010666;-81
2023/06/17 00:23:13;;;;;;;21.50;15.30;;;;;;;-128.00;-1.00;-1.00;103703;1257;1002652;-82
2023/06/17 00:25:41;;;;;;;22.50;15.70;;;;;;;-128.00;-1.00;-1.00;103673;1256;1003038;-81
2023/06/17 00:28:08;;;;;;;16.90;14.20;;;;;;;-128.00;-1.00;-1.00;103633;1251;1002466;-82
2023/06/17 00:30:35;;;;;;;24.20;16.10;;;;;;;-128.00;-1.00;-1.00;103663;1251;1002542;-82
2023/06/17 00:33:01;;;;;;;23.40;15.50;;;;;;;-128.00;-1.00;-1.00;103646;1251;1002519;-82
2023/06/17 00:35:28;;;;;;;17.50;15.20;;;;;;;-128.00;-1.00;-1.00;103673;1257;1002661;-82
2023/06/17 00:37:55;;;;;;;21.00;15.80;;;;;;;-128.00;-1.00;-1.00;103660;1257;1002974;-81
2023/06/17 00:40:22;;;;;;;23.00;17.90;;;;;;;-128.00;-1.00;-1.00;103644;1256;1002682;-81
2023/06/17 00:42:49;;;;;;;19.50;17.20;;;;;;;-128.00;-1.00;-1.00;103704;1251;1002904;-80
2023/06/17 00:45:16;;;;;;;25.30;18.90;;;;;;;-128.00;-1.00;-1.00;103446;1251;1003013;-81
2023/06/17 00:47:43;;;;;;;27.80;19.10;;;;;;;-128.00;-1.00;-1.00;103410;1252;1003722;-82
2023/06/17 00:50:12;;;;;;;23.60;16.90;;;;;;;-128.00;-1.00;-1.00;103407;1253;1002697;-85
2023/06/17 00:52:42;;;;;;;21.80;16.70;;;;;;;-128.00;-1.00;-1.00;106068;1251;1012847;-80
2023/06/17 00:55:10;;;;;;;25.90;19.90;;;;;;;-128.00;-1.00;-1.00;103494;1251;1010014;-82
2023/06/17 00:57:38;;;;;;;25.80;18.50;;;;;;;-128.00;-1.00;-1.00;103561;1255;1003058;-81
2023/06/17 01:00:10;;;;;;;27.90;18.50;;;;;;;-128.00;-1.00;-1.00;103754;1257;1003361;-81
2023/06/17 01:02:40;;;;;;;33.10;19.80;;;;;;;-128.00;-1.00;-1.00;103338;1254;1012592;-84
2023/06/17 01:05:12;;;;;;;28.20;19.90;;;;;;;-128.00;-1.00;-1.00;103566;1254;1013153;-81
2023/06/17 01:08:09;;;;;;;27.20;18.90;;;;;;;-128.00;-1.00;-1.00;103508;1253;1010380;-81
2023/06/17 01:11:00;;;;;;;29.20;20.40;;;;;;;-128.00;-1.00;-1.00;103538;1254;1010958;-81
2023/06/17 01:13:28;;;;;;;28.80;19.40;;;;;;;-128.00;-1.00;-1.00;103554;1258;1012995;-81
2023/06/17 01:15:55;;;;;;;31.40;21.20;;;;;;;-128.00;-1.00;-1.00;103532;1255;1002462;-82
2023/06/17 01:18:25;;;;;;;30.30;21.30;;;;;;;-128.00;-1.00;-1.00;103320;1257;1013100;-81
2023/06/17 01:20:53;;;;;;;33.90;21.40;;;;;;;-128.00;-1.00;-1.00;103338;1254;1002685;-82
2023/06/17 01:23:31;;;;;;;37.80;20.90;;;;;;;-128.00;-1.00;-1.00;103491;1257;1011460;-80
2023/06/17 01:25:58;;;;;;;32.90;21.70;;;;;;;-128.00;-1.00;-1.00;103499;1257;1013808;-81
2023/06/17 01:28:25;;;;;;;42.10;23.90;;;;;;;-128.00;-1.00;-1.00;103371;1259;1002588;-80
2023/06/17 01:30:57;;;;;;;32.80;23.50;;;;;;;-128.00;-1.00;-1.00;103530;1251;1013429;-81
2023/06/17 01:33:24;;;;;;;46.10;27.80;;;;;;;-128.00;-1.00;-1.00;103604;1251;1010444;-81
2023/06/17 01:36:13;;;;;;;50.80;28.20;;;;;;;-128.00;-1.00;-1.00;103319;1251;1010615;-81
2023/06/17 01:38:46;;;;;;;46.00;30.70;;;;;;;-128.00;-1.00;-1.00;103354;1257;1013046;-80
2023/06/17 01:41:17;;;;;;;55.00;30.10;;;;;;;-128.00;-1.00;-1.00;103593;1251;1012726;-81
2023/06/17 01:43:45;;;;;;;59.70;30.30;;;;;;;-128.00;-1.00;-1.00;103546;1251;1013435;-78
2023/06/17 01:46:13;;;;;;;54.00;30.10;;;;;;;-128.00;-1.00;-1.00;103644;1251;1002347;-80
2023/06/17 01:48:40;;;;;;;45.90;28.80;;;;;;;-128.00;-1.00;-1.00;103424;1251;1002193;-81
2023/06/17 01:51:07;;;;;;;38.00;25.40;;;;;;;-128.00;-1.00;-1.00;103381;1260;1002250;-81
2023/06/17 01:53:34;;;;;;;37.30;23.80;;;;;;;-128.00;-1.00;-1.00;103635;1256;1002529;-81
2023/06/17 01:56:01;;;;;;;33.60;23.80;;;;;;;-128.00;-1.00;-1.00;103588;1254;1002551;-81
2023/06/17 01:58:28;;;;;;;50.50;28.50;;;;;;;-128.00;-1.00;-1.00;103528;1253;1002782;-81
2023/06/17 02:00:55;;;;;;;49.70;27.40;;;;;;;-128.00;-1.00;-1.00;103527;1252;1003435;-81
2023/06/17 02:03:22;;;;;;;48.70;28.50;;;;;;;-128.00;-1.00;-1.00;103600;1257;1003184;-81
2023/06/17 02:05:50;;;;;;;44.70;26.50;;;;;;;-128.00;-1.00;-1.00;103568;1254;1002377;-81
2023/06/17 02:08:19;;;;;;;56.90;30.20;;;;;;;-128.00;-1.00;-1.00;103563;1254;1013010;-82
2023/06/17 02:10:46;;;;;;;48.10;29.40;;;;;;;-128.00;-1.00;-1.00;103507;1252;1003057;-81
2023/06/17 02:13:12;;;;;;;59.10;31.40;;;;;;;-128.00;-1.00;-1.00;103560;1254;1002600;-80
2023/06/17 02:15:42;;;;;;;60.10;33.50;;;;;;;-128.00;-1.00;-1.00;103555;1257;1002693;-81
2023/06/17 02:18:12;;;;;;;65.30;34.70;;;;;;;-128.00;-1.00;-1.00;103546;1254;1011867;-81
2023/06/17 02:20:39;;;;;;;82.60;40.30;;;;;;;-128.00;-1.00;-1.00;103578;1254;1002722;-81
2023/06/17 02:23:07;;;;;;;76.00;40.70;;;;;;;-128.00;-1.00;-1.00;103498;1254;1003818;-81
2023/06/17 02:25:36;;;;;;;61.20;34.50;;;;;;;-128.00;-1.00;-1.00;105100;1253;1002465;-79
2023/06/17 02:28:03;;;;;;;67.20;35.00;;;;;;;-128.00;-1.00;-1.00;104547;1258;1013094;-81
2023/06/17 02:30:30;;;;;;;58.50;35.90;;;;;;;-128.00;-1.00;-1.00;103505;1256;1002336;-81
2023/06/17 02:32:58;;;;;;;61.10;37.50;;;;;;;-128.00;-1.00;-1.00;103633;1251;1003003;-81
2023/06/17 02:35:25;;;;;;;69.40;39.70;;;;;;;-128.00;-1.00;-1.00;103582;1251;1002538;-81
2023/06/17 02:37:55;;;;;;;62.50;37.70;;;;;;;-128.00;-1.00;-1.00;103368;1251;1002913;-81
2023/06/17 02:40:23;;;;;;;90.20;42.60;;;;;;;-128.00;-1.00;-1.00;103340;1252;1013673;-82
2023/06/17 02:42:50;;;;;;;81.90;41.80;;;;;;;-128.00;-1.00;-1.00;103534;1251;1002609;-86
2023/06/17 02:45:17;;;;;;;83.50;40.00;;;;;;;-128.00;-1.00;-1.00;103337;1251;1002538;-81
2023/06/17 02:47:46;;;;;;;80.30;40.20;;;;;;;-128.00;-1.00;-1.00;103524;1251;1010218;-80
2023/06/17 02:50:14;;;;;;;63.40;35.00;;;;;;;-128.00;-1.00;-1.00;103296;1251;1002516;-82
2023/06/17 02:52:46;;;;;;;64.20;34.20;;;;;;;-128.00;-1.00;-1.00;103568;1257;1002929;-81
2023/06/17 02:55:15;;;;;;;81.30;41.40;;;;;;;-128.00;-1.00;-1.00;103320;1260;1013756;-81
2023/06/17 02:57:42;;;;;;;94.70;42.70;;;;;;;-128.00;-1.00;-1.00;103525;1254;1013680;-83
2023/06/17 03:00:10;;;;;;;69.80;37.40;;;;;;;-128.00;-1.00;-1.00;103499;1254;1003019;-81
2023/06/17 03:02:37;;;;;;;76.40;39.20;;;;;;;-128.00;-1.00;-1.00;103554;1254;1010875;-81
2023/06/17 03:05:06;;;;;;;47.70;28.60;;;;;;;-128.00;-1.00;-1.00;103598;1257;1002992;-85
2023/06/17 03:07:36;;;;;;;62.30;35.40;;;;;;;-128.00;-1.00;-1.00;103565;1256;1002666;-82
2023/06/17 03:10:03;;;;;;;68.00;36.70;;;;;;;-128.00;-1.00;-1.00;103448;1254;1012674;-83
2023/06/17 03:12:33;;;;;;;74.50;39.10;;;;;;;-128.00;-1.00;-1.00;103523;1254;1010431;-82
2023/06/17 03:15:00;;;;;;;67.30;32.00;;;;;;;-128.00;-1.00;-1.00;103520;1255;1003902;-81
2023/06/17 03:17:27;;;;;;;63.90;32.40;;;;;;;-128.00;-1.00;-1.00;103496;1257;1002483;-82
2023/06/17 03:19:56;;;;;;;45.00;28.50;;;;;;;-128.00;-1.00;-1.00;103482;1256;1002359;-82
2023/06/17 03:22:23;;;;;;;44.60;25.80;;;;;;;-128.00;-1.00;-1.00;103666;1253;1012445;-81
2023/06/17 03:24:51;;;;;;;43.80;23.70;;;;;;;-128.00;-1.00;-1.00;103538;1254;1002983;-83
2023/06/17 03:27:17;;;;;;;32.10;20.70;;;;;;;-128.00;-1.00;-1.00;103578;1254;1002767;-80
2023/06/17 03:29:44;;;;;;;33.80;18.50;;;;;;;-128.00;-1.00;-1.00;103319;1254;1004635;-84
2023/06/17 03:32:11;;;;;;;36.50;20.20;;;;;;;-128.00;-1.00;-1.00;103534;1256;1002939;-82
2023/06/17 03:34:39;;;;;;;34.60;21.90;;;;;;;-128.00;-1.00;-1.00;103600;1251;1004018;-82
2023/06/17 03:37:08;;;;;;;38.80;21.80;;;;;;;-128.00;-1.00;-1.00;103536;1251;1010767;-83
2023/06/17 03:39:36;;;;;;;39.30;22.90;;;;;;;-128.00;-1.00;-1.00;103505;1251;1002521;-80
2023/06/17 03:42:03;;;;;;;41.50;23.70;;;;;;;-128.00;-1.00;-1.00;103510;1257;1003372;-81
2023/06/17 03:44:32;;;;;;;41.90;24.20;;;;;;;-128.00;-1.00;-1.00;103646;1257;1002155;-81
2023/06/17 03:46:59;;;;;;;39.40;22.10;;;;;;;-128.00;-1.00;-1.00;103604;1257;1012355;-82
2023/06/17 03:49:26;;;;;;;35.50;22.60;;;;;;;-128.00;-1.00;-1.00;103608;1257;1004019;-80
2023/06/17 03:51:53;;;;;;;37.90;21.20;;;;;;;-128.00;-1.00;-1.00;103412;1251;1003165;-81
2023/06/17 03:54:20;;;;;;;27.60;17.50;;;;;;;-128.00;-1.00;-1.00;103635;1256;1002740;-81
2023/06/17 03:56:47;;;;;;;24.00;17.00;;;;;;;-128.00;-1.00;-1.00;103503;1256;1002807;-81
2023/06/17 03:59:15;;;;;;;24.80;15.60;;;;;;;-128.00;-1.00;-1.00;104850;1251;1002923;-82
2023/06/17 04:01:42;;;;;;;23.30;15.90;;;;;;;-128.00;-1.00;-1.00;105134;1256;1002770;-84
2023/06/17 04:04:09;;;;;;;23.70;15.00;;;;;;;-128.00;-1.00;-1.00;103666;1251;1003165;-85
2023/06/17 04:06:38;;;;;;;36.80;16.50;;;;;;;-128.00;-1.00;-1.00;103544;1257;1013769;-82
2023/06/17 04:09:05;;;;;;;25.70;16.50;;;;;;;-128.00;-1.00;-1.00;103587;1257;1002986;-82
2023/06/17 04:11:33;;;;;;;21.70;14.80;;;;;;;-128.00;-1.00;-1.00;103590;1251;1012613;-80
2023/06/17 04:14:00;;;;;;;21.70;14.80;;;;;;;-128.00;-1.00;-1.00;103572;1251;1002868;-81
2023/06/17 04:16:30;;;;;;;22.20;12.60;;;;;;;-128.00;-1.00;-1.00;103521;1251;1002685;-82
2023/06/17 04:18:57;;;;;;;19.20;12.90;;;;;;;-128.00;-1.00;-1.00;103538;1257;1013958;-82
2023/06/17 04:21:25;;;;;;;17.10;12.70;;;;;;;-128.00;-1.00;-1.00;103562;1256;1002911;-82
2023/06/17 04:23:52;;;;;;;16.00;12.10;;;;;;;-128.00;-1.00;-1.00;103605;1251;1003925;-83
2023/06/17 04:26:19;;;;;;;16.20;10.90;;;;;;;-128.00;-1.00;-1.00;103512;1251;1002666;-82
2023/06/17 04:28:47;;;;;;;13.90;10.60;;;;;;;-128.00;-1.00;-1.00;103512;1251;1004533;-82
2023/06/17 04:31:15;;;;;;;16.80;11.20;;;;;;;-128.00;-1.00;-1.00;103574;1251;1002524;-83
2023/06/17 04:33:42;;;;;;;18.00;10.50;;;;;;;-128.00;-1.00;-1.00;103608;1257;1012402;-82
2023/06/17 04:36:14;;;;;;;11.70;9.60;;;;;;;-128.00;-1.00;-1.00;103769;1251;1002420;-83
2023/06/17 04:38:41;;;;;;;15.00;9.10;;;;;;;-128.00;-1.00;-1.00;103692;1251;1010284;-83
2023/06/17 04:41:09;;;;;;;13.60;10.00;;;;;;;-128.00;-1.00;-1.00;103745;1251;1002413;-82
2023/06/17 04:43:39;;;;;;;16.40;9.60;;;;;;;-128.00;-1.00;-1.00;103736;1251;1004790;-83
2023/06/17 04:46:10;;;;;;;10.80;9.40;;;;;;;-128.00;-1.00;-1.00;103712;1257;1011863;-84
2023/06/17 04:48:38;;;;;;;13.20;8.90;;;;;;;-128.00;-1.00;-1.00;103726;1251;1012512;-82
2023/06/17 04:51:05;;;;;;;18.20;9.00;;;;;;;-128.00;-1.00;-1.00;103371;1261;1002416;-81
2023/06/17 04:53:33;;;;;;;14.10;9.40;;;;;;;-128.00;-1.00;-1.00;103683;1251;1002907;-82
2023/06/17 04:56:00;;;;;;;16.00;9.50;;;;;;;-128.00;-1.00;-1.00;103623;1257;1002891;-82
2023/06/17 04:58:28;;;;;;;11.70;7.80;;;;;;;-128.00;-1.00;-1.00;103513;1256;1012377;-83
2023/06/17 05:01:04;;;;;;;9.10;8.20;;;;;;;-128.00;-1.00;-1.00;103622;1251;1012670;-83
2023/06/17 05:03:32;;;;;;;14.40;9.60;;;;;;;-128.00;-1.00;-1.00;103836;1251;1002613;-82
2023/06/17 05:05:59;;;;;;;15.30;8.80;;;;;;;-128.00;-1.00;-1.00;103775;1251;1002383;-83
2023/06/17 05:08:29;;;;;;;16.60;10.00;;;;;;;-128.00;-1.00;-1.00;103817;1257;1013946;-81
2023/06/17 05:10:58;;;;;;;12.00;9.00;;;;;;;-128.00;-1.00;-1.00;104067;1251;1013207;-84
2023/06/17 05:13:27;;;;;;;14.10;10.10;;;;;;;-128.00;-1.00;-1.00;104338;1251;1013204;-84
2023/06/17 05:15:55;;;;;;;11.50;9.60;;;;;;;-128.00;-1.00;-1.00;104403;1251;1010704;-86
2023/06/17 05:18:22;;;;;;;;;;;;;;;-128.00;-1.00;-1.00;103655;1251;1004086;-83
2023/06/17 05:20:50;;;;;;;;;;;;;;;-128.00;-1.00;-1.00;103742;1257;1002709;-84
2023/06/17 05:23:17;;;;;;;16.30;9.40;;;;;;;-128.00;-1.00;-1.00;103736;1257;1002646;-82
2023/06/17 05:25:44;;;;;;;13.10;9.30;;;;;;;-128.00;-1.00;-1.00;103585;1256;1003098;-83
2023/06/17 05:28:12;;;;;;;13.80;9.50;;;;;;;-128.00;-1.00;-1.00;103642;1251;1002872;-83
2023/06/17 05:30:40;;;;;;;9.80;8.70;;;;;;;-128.00;-1.00;-1.00;103628;1251;1012064;-83
2023/06/17 05:33:08;;;;;;;11.10;7.90;;;;;;;-128.00;-1.00;-1.00;104597;1251;1003142;-84
2023/06/17 05:35:34;;;;;;;11.30;9.80;;;;;;;-128.00;-1.00;-1.00;104839;1257;1002245;-93
2023/06/17 05:38:01;;;;;;;13.50;9.10;;;;;;;-128.00;-1.00;-1.00;103363;1251;1002139;-83
2023/06/17 05:40:28;;;;;;;14.80;9.30;;;;;;;-128.00;-1.00;-1.00;103395;1251;1002701;-82
2023/06/17 05:42:55;;;;;;;15.70;9.00;;;;;;;-128.00;-1.00;-1.00;103276;1251;1003082;-85
2023/06/17 05:45:22;;;;;;;13.10;9.70;;;;;;;-128.00;-1.00;-1.00;103615;1251;1004447;-84
2023/06/17 05:47:50;;;;;;;11.00;8.90;;;;;;;-128.00;-1.00;-1.00;103656;1251;1003531;-82
2023/06/17 05:50:17;;;;;;;13.90;9.20;;;;;;;-128.00;-1.00;-1.00;103538;1253;1004146;-84
2023/06/17 05:52:45;;;;;;;12.80;8.60;;;;;;;-128.00;-1.00;-1.00;103503;1253;1010063;-84
2023/06/17 05:55:13;;;;;;;10.20;8.50;;;;;;;-128.00;-1.00;-1.00;103458;1253;1002736;-83
2023/06/17 05:57:40;;;;;;;10.70;8.60;;;;;;;-128.00;-1.00;-1.00;103386;1252;1003289;-84
2023/06/17 06:00:09;;;;;;;11.40;8.70;;;;;;;-128.00;-1.00;-1.00;103472;1257;1002697;-85
2023/06/17 06:02:43;;;;;;;12.60;8.80;;;;;;;-128.00;-1.00;-1.00;103697;1251;1012868;-83
2023/06/17 06:05:10;;;;;;;10.80;8.90;;;;;;;-128.00;-1.00;-1.00;103378;1253;1002855;-84
2023/06/17 06:07:38;;;;;;;15.10;8.70;;;;;;;-128.00;-1.00;-1.00;103377;1253;1002692;-84
2023/06/17 06:10:06;;;;;;;11.80;8.80;;;;;;;-128.00;-1.00;-1.00;103563;1251;1002686;-85
2023/06/17 06:12:35;;;;;;;10.50;7.10;;;;;;;-128.00;-1.00;-1.00;103774;1251;1012799;-84
2023/06/17 06:15:03;;;;;;;9.50;7.50;;;;;;;-128.00;-1.00;-1.00;103387;1251;1002853;-86
2023/06/17 06:17:30;;;;;;;9.90;7.70;;;;;;;-128.00;-1.00;-1.00;103362;1251;1002623;-84
2023/06/17 06:19:56;;;;;;;7.90;7.10;;;;;;;-128.00;-1.00;-1.00;103436;1251;1004292;-84
2023/06/17 06:22:23;;;;;;;8.00;7.30;;;;;;;-128.00;-1.00;-1.00;103655;1256;1002895;-83
2023/06/17 06:24:50;;;;;;;8.10;5.90;;;;;;;-128.00;-1.00;-1.00;103692;1256;1002679;-85
2023/06/17 06:27:17;;;;;;;12.40;7.30;;;;;;;-128.00;-1.00;-1.00;103416;1251;1004413;-83
2023/06/17 06:29:45;;;;;;;13.90;8.10;;;;;;;-128.00;-1.00;-1.00;103681;1251;1002784;-85
2023/06/17 06:32:13;;;;;;;8.40;6.40;;;;;;;-128.00;-1.00;-1.00;103392;1251;1011405;-84
2023/06/17 06:34:40;;;;;;;14.10;7.30;;;;;;;-128.00;-1.00;-1.00;103432;1251;1002878;-85
2023/06/17 06:37:07;;;;;;;8.20;7.20;;;;;;;-128.00;-1.00;-1.00;103415;1257;1002928;-85
2023/06/17 06:39:34;;;;;;;8.60;7.60;;;;;;;-128.00;-1.00;-1.00;103712;1251;1003624;-84
2023/06/17 06:42:01;;;;;;;8.90;6.40;;;;;;;-128.00;-1.00;-1.00;103683;1251;1002854;-84
2023/06/17 06:44:42;;;;;;;10.70;6.90;;;;;;;-128.00;-1.00;-1.00;103764;1251;1010571;-86
2023/06/17 06:47:11;;;;;;;7.10;6.40;;;;;;;-128.00;-1.00;-1.00;103443;1253;1012873;-84
2023/06/17 06:49:38;;;;;;;13.80;6.00;;;;;;;-128.00;-1.00;-1.00;103711;1255;1002672;-85
2023/06/17 06:52:05;;;;;;;;;;;;;;;-128.00;-1.00;-1.00;103446;1251;1003004;-82
2023/06/17 06:54:34;;;;;;;7.20;5.30;;;;;;;-128.00;-1.00;-1.00;103622;1251;1010912;-82
2023/06/17 06:57:01;;;;;;;9.90;5.40;;;;;;;-128.00;-1.00;-1.00;103594;1255;1003036;-85
2023/06/17 06:59:27;;;;;;;6.30;5.10;;;;;;;-128.00;-1.00;-1.00;103426;1258;1003000;-85
2023/06/17 07:01:54;;;;;;;8.60;5.00;;;;;;;-128.00;-1.00;-1.00;103579;1256;1002892;-83
2023/06/17 07:04:21;;;;;;;7.50;5.00;;;;;;;-128.00;-1.00;-1.00;103569;1253;1003269;-86
2023/06/17 07:06:50;;;;;;;12.10;5.00;;;;;;;-128.00;-1.00;-1.00;104703;1252;1010398;-82
2023/06/17 07:09:19;;;;;;;9.30;5.00;;;;;;;-128.00;-1.00;-1.00;105045;1254;1010466;-87
2023/06/17 07:11:46;;;;;;;11.10;5.10;;;;;;;-128.00;-1.00;-1.00;103584;1253;1002779;-86
2023/06/17 07:14:13;;;;;;;5.80;4.70;;;;;;;-128.00;-1.00;-1.00;103654;1256;1002565;-87
2023/06/17 07:16:41;;;;;;;8.10;5.40;;;;;;;-128.00;-1.00;-1.00;103665;1253;1002339;-82
2023/06/17 07:19:07;;;;;;;12.30;5.60;;;;;;;-128.00;-1.00;-1.00;103538;1253;1005137;-85
2023/06/17 07:21:34;;;;;;;6.60;4.90;;;;;;;-128.00;-1.00;-1.00;103602;1253;1002799;-87
2023/06/17 07:24:01;;;;;;;6.80;4.50;;;;;;;-128.00;-1.00;-1.00;103686;1256;1002611;-84
2023/06/17 07:26:28;;;;;;;5.10;4.60;;;;;;;-128.00;-1.00;-1.00;103618;1253;1004782;-86
2023/06/17 07:28:55;;;;;;;10.70;5.80;;;;;;;-128.00;-1.00;-1.00;103783;1253;1003245;-86
2023/06/17 07:31:28;;;;;;;7.20;5.40;;;;;;;-128.00;-1.00;-1.00;104496;1251;1002790;-86
2023/06/17 07:33:56;;;;;;;8.40;5.40;;;;;;;-128.00;-1.00;-1.00;104276;1251;1011543;-84
2023/06/17 07:36:26;;;;;;;11.10;5.50;;;;;;;-128.00;-1.00;-1.00;104269;1253;1014167;-85
2023/06/17 07:38:53;;;;;;;8.20;4.90;;;;;;;-128.00;-1.00;-1.00;104410;1257;1002550;-85
2023/06/17 07:41:20;;;;;;;9.90;4.80;;;;;;;-128.00;-1.00;-1.00;104164;1251;1002792;-83
2023/06/17 07:43:47;;;;;;;5.40;4.90;;;;;;;-128.00;-1.00;-1.00;104038;1251;1002269;-84
2023/06/17 07:46:13;;;;;;;7.60;4.70;;;;;;;-128.00;-1.00;-1.00;104039;1251;1002262;-84
2023/06/17 07:48:41;;;;;;;8.10;4.80;;;;;;;-128.00;-1.00;-1.00;103656;1256;1002305;-84
2023/06/17 07:51:08;;;;;;;6.60;5.10;;;;;;;-128.00;-1.00;-1.00;103766;1251;1002524;-85
2023/06/17 07:53:36;;;;;;;6.20;5.00;;;;;;;-128.00;-1.00;-1.00;103653;1251;1002279;-86
2023/06/17 07:56:03;;;;;;;9.10;5.00;;;;;;;-128.00;-1.00;-1.00;103415;1253;1003069;-88
2023/06/17 07:58:30;;;;;;;6.90;4.60;;;;;;;-128.00;-1.00;-1.00;103587;1251;1003200;-85
2023/06/17 08:00:57;;;;;;;5.70;4.50;;;;;;;-128.00;-1.00;-1.00;103711;1256;1002781;-80
2023/06/17 08:03:24;;;;;;;5.30;4.70;;;;;;;-128.00;-1.00;-1.00;103545;1256;1002367;-85
2023/06/17 08:05:51;;;;;;;10.70;5.60;;;;;;;-128.00;-1.00;-1.00;103661;1256;1002323;-84
2023/06/17 08:08:18;;;;;;;5.80;4.90;;;;;;;-128.00;-1.00;-1.00;103745;1251;1002804;-85
2023/06/17 08:10:45;;;;;;;8.00;5.30;;;;;;;-128.00;-1.00;-1.00;103735;1251;1002813;-86
2023/06/17 08:13:13;;;;;;;6.10;4.90;;;;;;;-128.00;-1.00;-1.00;103792;1251;1003122;-85
2023/06/17 08:15:41;;;;;;;5.90;4.60;;;;;;;-128.00;-1.00;-1.00;103560;1257;1013136;-84
2023/06/17 08:18:07;;;;;;;7.30;4.70;;;;;;;-128.00;-1.00;-1.00;103574;1251;1002653;-88
2023/06/17 08:20:36;;;;;;;8.00;4.90;;;;;;;-128.00;-1.00;-1.00;103725;1251;1002736;-83
2023/06/17 08:23:03;;;;;;;9.70;4.70;;;;;;;-128.00;-1.00;-1.00;103662;1251;1011480;-84
2023/06/17 08:25:33;;;;;;;6.80;4.70;;;;;;;-128.00;-1.00;-1.00;103736;1251;1012776;-84
2023/06/17 08:28:00;;;;;;;7.60;4.70;;;;;;;-128.00;-1.00;-1.00;103720;1251;1002352;-86
2023/06/17 08:30:29;;;;;;;11.10;5.20;;;;;;;-128.00;-1.00;-1.00;103451;1251;1012323;-87
2023/06/17 08:32:57;;;;;;;7.00;4.20;;;;;;;-128.00;-1.00;-1.00;103389;1251;1002653;-86
2023/06/17 08:35:24;;;;;;;10.10;4.70;;;;;;;-128.00;-1.00;-1.00;103395;1251;1002355;-85
2023/06/17 08:37:51;;;;;;;8.20;4.90;;;;;;;-128.00;-1.00;-1.00;103613;1251;1002610;-85
2023/06/17 08:40:17;;;;;;;5.90;4.70;;;;;;;-128.00;-1.00;-1.00;103749;1251;1002789;-86
2023/06/17 08:42:45;;;;;;;5.90;4.90;;;;;;;-128.00;-1.00;-1.00;106314;1255;1002361;-86
2023/06/17 08:45:12;;;;;;;5.40;4.50;;;;;;;-128.00;-1.00;-1.00;103634;1251;1003204;-83
2023/06/17 08:47:39;;;;;;;5.90;5.00;;;;;;;-128.00;-1.00;-1.00;103569;1251;1002411;-83
2023/06/17 08:50:07;;;;;;;7.40;4.90;;;;;;;-128.00;-1.00;-1.00;103364;1251;1002821;-83
2023/06/17 08:52:36;;;;;;;7.40;5.10;;;;;;;-128.00;-1.00;-1.00;103367;1256;1002459;-85
2023/06/17 08:55:03;;;;;;;5.20;4.70;;;;;;;-128.00;-1.00;-1.00;103415;1253;1012869;-85
2023/06/17 08:57:31;;;;;;;9.00;4.60;;;;;;;-128.00;-1.00;-1.00;103643;1251;1003196;-86
2023/06/17 08:59:58;;;;;;;11.00;5.20;;;;;;;-128.00;-1.00;-1.00;103438;1251;1011873;-86
2023/06/17 09:02:25;;;;;;;5.10;4.50;;;;;;;-128.00;-1.00;-1.00;103693;1251;1002445;-85
2023/06/17 09:04:52;;;;;;;6.40;4.70;;;;;;;-128.00;-1.00;-1.00;103436;1251;1002636;-84
2023/06/17 09:07:19;;;;;;;;;;;;;;;-128.00;-1.00;-1.00;103351;1253;1002612;-87
2023/06/17 09:09:48;;;;;;;7.30;5.10;;;;;;;-128.00;-1.00;-1.00;103563;1251;1003372;-84
2023/06/17 09:12:14;;;;;;;10.40;7.40;;;;;;;-128.00;-1.00;-1.00;103571;1251;1011132;-83
2023/06/17 09:14:43;;;;;;;9.50;6.00;;;;;;;-128.00;-1.00;-1.00;103615;1256;1002432;-85
2023/06/17 09:17:10;;;;;;;13.80;5.60;;;;;;;-128.00;-1.00;-1.00;103630;1256;1012544;-85
2023/06/17 09:19:40;;;;;;;5.60;4.50;;;;;;;-128.00;-1.00;-1.00;103622;1251;1002746;-85
2023/06/17 09:22:08;;;;;;;12.30;5.70;;;;;;;-128.00;-1.00;-1.00;103698;1251;1010972;-85
2023/06/17 09:24:40;;;;;;;7.20;4.60;;;;;;;-128.00;-1.00;-1.00;103618;1255;1002582;-87
2023/06/17 09:27:09;;;;;;;7.70;4.90;;;;;;;-128.00;-1.00;-1.00;103430;1257;1013680;-86
2023/06/17 09:29:36;;;;;;;5.10;4.70;;;;;;;-128.00;-1.00;-1.00;103446;1257;1012819;-87
2023/06/17 09:32:04;;;;;;;4.90;4.40;;;;;;;-128.00;-1.00;-1.00;103658;1253;1002190;-85
2023/06/17 09:34:31;;;;;;;8.10;4.30;;;;;;;-128.00;-1.00;-1.00;103695;1251;1002588;-87
2023/06/17 09:37:03;;;;;;;5.00;4.40;;;;;;;-128.00;-1.00;-1.00;103403;1257;1002417;-84
2023/06/17 09:39:30;;;;;;;6.50;5.00;;;;;;;-128.00;-1.00;-1.00;103583;1256;1013238;-85
2023/06/17 09:42:05;;;;;;;7.70;4.10;;;;;;;-128.00;-1.00;-1.00;103634;1256;1002575;-82
2023/06/17 09:44:32;;;;;;;6.90;4.80;;;;;;;-128.00;-1.00;-1.00;103668;1251;1013162;-86
2023/06/17 09:47:07;;;;;;;;;;;;;;;-128.00;-1.00;-1.00;103752;1251;1002425;-84
2023/06/17 09:49:35;;;;;;;11.50;5.10;;;;;;;-128.00;-1.00;-1.00;103622;1251;1010501;-82
2023/06/17 09:52:05;;;;;;;5.80;4.70;;;;;;;-128.00;-1.00;-1.00;103636;1256;1002531;-82
2023/06/17 09:54:32;;;;;;;6.50;4.70;;;;;;;-128.00;-1.00;-1.00;103615;1256;1011612;-84
2023/06/17 09:57:01;;;;;;;6.60;4.80;;;;;;;-128.00;-1.00;-1.00;103611;1252;1002900;-84
2023/06/17 09:59:28;;;;;;;7.50;5.20;;;;;;;-128.00;-1.00;-1.00;103513;1252;1009946;-86
2023/06/17 10:01:56;;;;;;;7.10;5.10;;;;;;;-128.00;-1.00;-1.00;103582;1253;1002902;-85
2023/06/17 10:04:23;;;;;;;8.30;5.70;;;;;;;-128.00;-1.00;-1.00;103603;1252;1012773;-86
2023/06/17 10:06:52;;;;;;;6.50;5.60;;;;;;;-128.00;-1.00;-1.00;103551;1256;1003185;-85
2023/06/17 10:09:19;;;;;;;5.80;5.10;;;;;;;-128.00;-1.00;-1.00;103438;1254;1012567;-85
2023/06/17 10:11:48;;;;;;;6.80;5.30;;;;;;;-128.00;-1.00;-1.00;103634;1252;1003186;-82
2023/06/17 10:14:26;;;;;;;8.30;5.60;;;;;;;-128.00;-1.00;-1.00;103719;1253;1011580;-93
2023/06/17 10:16:52;;;;;;;7.60;5.20;;;;;;;-128.00;-1.00;-1.00;106202;1252;1013845;-86
2023/06/17 10:19:22;;;;;;;9.00;5.60;;;;;;;-128.00;-1.00;-1.00;103547;1254;1002609;-84
2023/06/17 10:21:50;;;;;;;5.10;4.60;;;;;;;-128.00;-1.00;-1.00;103578;1253;1013048;-87
2023/06/17 10:24:17;;;;;;;5.60;5.00;;;;;;;-128.00;-1.00;-1.00;103630;1253;1002548;-88
2023/06/17 10:26:44;;;;;;;9.40;5.70;;;;;;;-128.00;-1.00;-1.00;103423;1254;1002692;-86
2023/06/17 10:29:12;;;;;;;13.10;5.20;;;;;;;-128.00;-1.00;-1.00;103590;1253;1002925;-88
2023/06/17 10:31:40;;;;;;;7.20;4.70;;;;;;;-128.00;-1.00;-1.00;103466;1257;1013313;-87
2023/06/17 10:34:36;;;;;;;6.40;5.00;;;;;;;-128.00;-1.00;-1.00;103666;1251;1002733;-84
2023/06/17 10:37:03;;;;;;;9.20;5.20;;;;;;;-128.00;-1.00;-1.00;102956;1260;1010410;-86
2023/06/17 10:39:31;;;;;;;8.70;5.20;;;;;;;-128.00;-1.00;-1.00;102994;1261;1002588;-84
2023/06/17 10:42:00;;;;;;;8.00;5.90;;;;;;;-128.00;-1.00;-1.00;102948;1264;1002738;-85
2023/06/17 10:44:40;;;;;;;11.00;5.40;;;;;;;-128.00;-1.00;-1.00;102963;1260;1013172;-85
2023/06/17 10:47:23;;;;;;;8.40;5.30;;;;;;;-128.00;-1.00;-1.00;102736;1261;1013362;-88
2023/06/17 10:49:52;;;;;;;6.10;5.30;;;;;;;-128.00;-1.00;-1.00;102883;1261;1010458;-86
2023/06/17 10:52:19;;;;;;;7.00;5.50;;;;;;;-128.00;-1.00;-1.00;102983;1260;1010794;-86
2023/06/17 10:54:54;;;;;;;6.70;5.20;;;;;;;-128.00;-1.00;-1.00;103049;1260;1002309;-83
2023/06/17 10:57:37;;;;;;;5.90;5.30;;;;;;;-128.00;-1.00;-1.00;103005;1263;1013390;-83
2023/06/17 11:00:08;;;;;;;6.60;5.10;;;;;;;-128.00;-1.00;-1.00;103185;1263;1013242;-87
2023/06/17 11:02:38;;;;;;;6.50;5.30;;;;;;;-128.00;-1.00;-1.00;103010;1259;1009609;-84
2023/06/17 11:05:06;;;;;;;6.60;5.80;;;;;;;-128.00;-1.00;-1.00;102936;1259;1011975;-85
2023/06/17 11:07:33;;;;;;;6.20;5.20;;;;;;;-128.00;-1.00;-1.00;102961;1264;1013619;-84
2023/06/17 11:10:02;;;;;;;;;;;;;;;-128.00;-1.00;-1.00;103077;1259;1002461;-85
2023/06/17 11:12:29;;;;;;;5.70;5.20;;;;;;;-128.00;-1.00;-1.00;103074;1259;1003135;-86
2023/06/17 11:15:21;;;;;;;9.40;5.60;;;;;;;-128.00;-1.00;-1.00;103420;1251;1010707;-84
2023/06/17 11:17:58;;;;;;;6.50;5.50;;;;;;;-128.00;-1.00;-1.00;103064;1262;1010909;-84